Time;durP1;ratioP1;P1;durP2;ratioP2;P2;SDS_P1;SDS_P2;PMS_P1;PMS_P2;Temp;Humidity;BMP_temperature;BMP_pressure;BME280_temperature;BME280_humidity;BME280_pressure;Samples;Min_cycle;Max_cycle;Signal;HPM_P1;HPM_P2
2023/08/04 00:00:29;;;;;;;1.00;0.50;;;;;;;16.02;70.47;99692.18;105274;1258;69179;-63
2023/08/04 00:03:17;;;;;;;3.00;0.60;;;;;;;16.03;70.47;99690.35;105220;1258;76125;-63
2023/08/04 00:05:44;;;;;;;1.90;0.40;;;;;;;16.02;70.57;99689.48;105273;1258;83772;-63
2023/08/04 00:08:11;;;;;;;2.60;0.70;;;;;;;16.02;70.61;99684.10;105233;1257;73660;-63
2023/08/04 00:10:37;;;;;;;2.30;0.60;;;;;;;15.99;70.57;99685.13;105212;1256;69114;-63
2023/08/04 00:13:04;;;;;;;1.40;0.40;;;;;;;15.96;70.69;99685.35;105283;1255;69215;-63
2023/08/04 00:15:31;;;;;;;2.40;0.60;;;;;;;15.94;70.79;99683.41;105264;1257;73668;-63
2023/08/04 00:17:58;;;;;;;1.50;0.60;;;;;;;15.93;71.03;99694.26;105231;1256;82566;-63
2023/08/04 00:20:25;;;;;;;1.40;0.80;;;;;;;15.91;71.09;99695.64;105259;1259;73555;-63
2023/08/04 00:22:52;;;;;;;2.80;0.60;;;;;;;15.90;71.34;99684.60;105220;1256;69197;-63
2023/08/04 00:25:19;;;;;;;1.90;0.50;;;;;;;15.89;71.43;99680.77;105303;1256;69088;-64
2023/08/04 00:27:46;;;;;;;2.10;0.40;;;;;;;15.90;71.54;99679.31;105263;1258;73056;-63
2023/08/04 00:30:13;;;;;;;0.60;0.50;;;;;;;15.90;71.77;99679.09;105327;1258;83668;-64
2023/08/04 00:32:40;;;;;;;3.30;0.50;;;;;;;15.92;71.89;99686.71;105235;1256;73386;-64
2023/08/04 00:35:07;;;;;;;1.40;0.40;;;;;;;15.94;72.04;99689.92;105213;1258;69324;-63
2023/08/04 00:37:34;;;;;;;1.50;0.50;;;;;;;15.97;72.11;99690.58;105228;1259;69077;-63
2023/08/04 00:40:02;;;;;;;1.30;0.40;;;;;;;16.01;72.23;99688.69;105278;1256;74707;-63
2023/08/04 00:42:29;;;;;;;1.10;0.70;;;;;;;16.05;72.25;99685.45;105191;1261;83538;-63
2023/08/04 00:44:56;;;;;;;2.90;0.60;;;;;;;16.07;72.30;99687.07;105219;1257;73501;-63
2023/08/04 00:47:27;;;;;;;2.80;0.40;;;;;;;16.06;72.35;99687.27;105185;1261;69070;-63
2023/08/04 00:49:54;;;;;;;1.70;0.60;;;;;;;16.09;72.39;99690.67;105224;1260;69240;-63
2023/08/04 00:52:21;;;;;;;1.40;0.40;;;;;;;16.09;72.43;99705.80;105295;1259;73822;-63
2023/08/04 00:54:48;;;;;;;1.60;0.40;;;;;;;16.08;72.46;99718.56;105219;1256;82309;-63
2023/08/04 00:57:15;;;;;;;1.60;0.50;;;;;;;16.06;72.42;99723.43;105227;1258;73543;-63
2023/08/04 00:59:42;;;;;;;2.40;0.50;;;;;;;16.02;72.34;99721.08;105254;1259;69125;-63
2023/08/04 01:02:09;;;;;;;1.30;0.40;;;;;;;15.97;72.43;99713.65;105234;1256;69152;-64
2023/08/04 01:04:36;;;;;;;1.00;0.40;;;;;;;15.94;72.60;99705.09;105254;1258;74887;-63
2023/08/04 01:07:07;;;;;;;0.90;0.50;;;;;;;15.92;72.61;99693.97;105282;1259;83426;-63
2023/08/04 01:09:37;;;;;;;1.00;0.50;;;;;;;15.90;72.67;99686.32;105115;1256;73920;-64
2023/08/04 01:12:11;;;;;;;0.80;0.40;;;;;;;15.88;72.87;99687.50;105252;1259;69176;-62
2023/08/04 01:14:42;;;;;;;3.70;0.50;;;;;;;15.87;73.02;99694.84;105313;1258;69170;-62
2023/08/04 01:17:26;;;;;;;2.90;0.40;;;;;;;15.86;73.18;99699.14;105228;1256;74842;-63
2023/08/04 01:19:53;;;;;;;1.30;0.40;;;;;;;15.84;73.39;99703.66;105304;1258;83487;-63
2023/08/04 01:22:21;;;;;;;2.40;0.50;;;;;;;15.79;73.69;99711.02;105243;1260;72630;-65
2023/08/04 01:24:49;;;;;;;2.60;0.50;;;;;;;15.72;74.18;99712.10;105227;1255;69087;-65
2023/08/04 01:27:18;;;;;;;5.10;0.60;;;;;;;15.61;75.23;99712.83;105229;1259;69257;-65
2023/08/04 01:29:46;;;;;;;1.80;0.60;;;;;;;15.48;75.26;99720.55;105313;1257;74669;-65
2023/08/04 01:32:13;;;;;;;1.10;0.40;;;;;;;15.34;75.19;99732.05;105159;1256;82506;-63
2023/08/04 01:34:47;;;;;;;3.30;0.60;;;;;;;15.26;75.41;99737.23;105272;1258;73591;-64
2023/08/04 01:37:15;;;;;;;0.60;0.40;;;;;;;15.20;75.60;99741.78;105245;1256;69090;-64
2023/08/04 01:39:42;;;;;;;0.90;0.40;;;;;;;15.21;75.99;99743.89;105238;1258;69165;-63
2023/08/04 01:42:09;;;;;;;1.10;0.40;;;;;;;15.17;76.06;99741.33;105233;1256;74877;-63
2023/08/04 01:44:36;;;;;;;3.30;0.60;;;;;;;15.08;76.25;99738.77;105122;1262;83598;-62
2023/08/04 01:47:05;;;;;;;3.70;0.40;;;;;;;15.01;76.57;99740.96;105221;1256;72534;-62
2023/08/04 01:49:32;;;;;;;1.10;0.50;;;;;;;14.97;76.78;99746.67;105159;1257;69129;-63
2023/08/04 01:51:59;;;;;;;1.20;0.60;;;;;;;14.92;76.93;99749.44;105185;1261;69133;-62
2023/08/04 01:54:26;;;;;;;0.40;0.30;;;;;;;14.90;77.20;99742.55;105261;1259;72897;-63
2023/08/04 01:56:52;;;;;;;1.00;0.50;;;;;;;14.90;77.30;99745.40;105166;1260;82555;-63
2023/08/04 01:59:19;;;;;;;0.80;0.50;;;;;;;14.89;77.43;99742.06;105198;1259;73868;-63
2023/08/04 02:01:46;;;;;;;2.90;0.90;;;;;;;14.88;77.63;99743.73;105281;1258;69908;-63
2023/08/04 02:04:14;;;;;;;1.70;0.40;;;;;;;14.87;77.80;99748.39;105266;1258;69173;-62
2023/08/04 02:06:41;;;;;;;4.50;0.50;;;;;;;14.84;77.75;99754.19;105247;1258;74283;-62
2023/08/04 02:09:08;;;;;;;1.00;0.50;;;;;;;14.82;77.80;99758.92;105108;1261;83323;-62
2023/08/04 02:11:35;;;;;;;1.60;0.40;;;;;;;14.80;77.87;99754.10;105240;1258;73763;-62
2023/08/04 02:14:02;;;;;;;2.50;0.60;;;;;;;14.79;77.99;99757.89;105280;1258;69122;-62
2023/08/04 02:16:28;;;;;;;4.70;0.50;;;;;;;14.78;78.12;99761.13;105199;1258;69197;-62
2023/08/04 02:19:04;;;;;;;3.10;0.40;;;;;;;14.78;78.29;99760.22;105261;1256;74926;-62
2023/08/04 02:21:31;;;;;;;4.70;0.50;;;;;;;14.80;78.57;99759.20;105241;1258;83179;-63
2023/08/04 02:23:58;;;;;;;0.90;0.50;;;;;;;14.77;78.84;99763.29;105240;1257;71868;-62
2023/08/04 02:26:25;;;;;;;1.80;0.40;;;;;;;14.72;79.05;99764.49;105213;1256;69074;-63
2023/08/04 02:28:53;;;;;;;1.50;0.50;;;;;;;14.69;79.23;99763.81;105301;1259;69198;-63
2023/08/04 02:31:21;;;;;;;2.40;0.40;;;;;;;14.62;79.30;99773.06;105249;1256;73737;-63
2023/08/04 02:33:48;;;;;;;2.10;0.30;;;;;;;14.53;79.44;99776.22;105329;1259;83613;-63
2023/08/04 02:36:16;;;;;;;1.80;0.60;;;;;;;14.47;79.77;99782.02;105301;1256;72686;-64
2023/08/04 02:38:43;;;;;;;1.10;0.50;;;;;;;14.43;80.06;99798.27;105281;1259;69196;-68
2023/08/04 02:41:10;;;;;;;1.40;0.40;;;;;;;14.38;80.15;99807.71;105223;1259;69184;-68
2023/08/04 02:43:38;;;;;;;1.50;0.60;;;;;;;14.37;80.49;99807.09;105296;1259;74858;-63
2023/08/04 02:46:05;;;;;;;2.50;0.70;;;;;;;14.38;80.68;99814.27;105222;1259;83256;-65
2023/08/04 02:48:33;;;;;;;2.10;0.50;;;;;;;14.33;80.72;99823.02;105295;1258;74117;-64
2023/08/04 02:51:06;;;;;;;1.90;0.50;;;;;;;14.27;81.18;99827.55;105262;1256;69201;-64
2023/08/04 02:53:35;;;;;;;0.60;0.40;;;;;;;14.25;81.61;99817.70;105319;1259;69182;-63
2023/08/04 02:56:09;;;;;;;2.60;0.70;;;;;;;14.24;81.83;99815.45;105179;1262;74842;-63
2023/08/04 02:58:36;;;;;;;1.30;0.50;;;;;;;14.20;82.12;99812.88;105212;1258;83526;-63
2023/08/04 03:01:04;;;;;;;1.20;0.80;;;;;;;14.15;82.40;99812.86;105214;1256;73741;-64
2023/08/04 03:03:32;;;;;;;3.60;1.00;;;;;;;14.12;82.81;99811.26;105214;1258;69050;-64
2023/08/04 03:06:00;;;;;;;2.50;0.30;;;;;;;14.09;83.13;99819.52;105291;1258;69226;-63
2023/08/04 03:08:28;;;;;;;0.80;0.50;;;;;;;14.09;83.45;99809.15;105307;1261;74841;-63
2023/08/04 03:10:55;;;;;;;1.30;0.40;;;;;;;14.10;83.62;99810.48;105249;1256;82315;-63
2023/08/04 03:13:22;;;;;;;1.80;0.70;;;;;;;14.11;83.99;99810.80;105243;1256;73669;-63
2023/08/04 03:16:00;;;;;;;0.60;0.40;;;;;;;14.12;84.25;99811.61;105298;1259;69080;-63
2023/08/04 03:18:27;;;;;;;2.10;0.30;;;;;;;14.11;84.32;99821.02;105296;1258;69231;-64
2023/08/04 03:20:55;;;;;;;3.60;0.50;;;;;;;14.10;84.42;99824.90;105311;1256;74845;-64
2023/08/04 03:23:22;;;;;;;0.60;0.50;;;;;;;14.13;84.65;99825.77;105301;1258;83333;-64
2023/08/04 03:25:49;;;;;;;2.50;0.50;;;;;;;14.19;84.57;99830.15;105270;1256;73708;-64
2023/08/04 03:28:17;;;;;;;2.80;0.40;;;;;;;14.24;84.60;99821.98;105228;1257;69186;-63
2023/08/04 03:30:44;;;;;;;1.60;0.40;;;;;;;14.29;84.86;99822.35;105274;1261;69408;-63
2023/08/04 03:33:11;;;;;;;0.50;0.40;;;;;;;14.29;85.03;99828.65;105263;1259;72880;-63
2023/08/04 03:35:38;;;;;;;1.00;0.40;;;;;;;14.30;85.28;99837.56;105337;1258;83407;-64
2023/08/04 03:38:06;;;;;;;1.00;0.50;;;;;;;14.33;85.33;99834.77;105255;1261;72784;-64
2023/08/04 03:40:32;;;;;;;2.00;0.40;;;;;;;14.34;85.13;99836.25;105303;1256;69289;-64
2023/08/04 03:42:59;;;;;;;2.30;0.60;;;;;;;14.39;85.36;99840.02;105347;1259;69160;-64
2023/08/04 03:45:26;;;;;;;1.40;0.50;;;;;;;14.43;85.68;99844.66;105281;1259;73795;-64
2023/08/04 03:47:53;;;;;;;3.00;0.60;;;;;;;14.46;85.67;99857.16;105295;1258;82391;-63
2023/08/04 03:50:22;;;;;;;0.90;0.60;;;;;;;14.49;85.65;99859.98;105347;1261;73937;-63
2023/08/04 03:52:49;;;;;;;1.30;0.60;;;;;;;14.53;85.94;99855.52;105221;1259;69196;-64
2023/08/04 03:55:16;;;;;;;2.40;0.50;;;;;;;14.58;85.71;99845.03;105266;1259;69189;-64
2023/08/04 03:57:43;;;;;;;3.20;0.60;;;;;;;14.63;85.71;99849.99;105270;1260;74920;-63
2023/08/04 04:00:10;;;;;;;1.50;0.50;;;;;;;14.68;85.59;99859.86;105180;1258;83678;-63
2023/08/04 04:02:41;;;;;;;0.70;0.50;;;;;;;14.75;85.61;99862.78;105201;1257;72693;-63
2023/08/04 04:05:08;;;;;;;0.90;0.50;;;;;;;14.82;85.60;99863.90;105224;1259;69172;-64
2023/08/04 04:07:35;;;;;;;1.30;0.40;;;;;;;14.90;85.62;99856.70;105165;1259;69115;-63
2023/08/04 04:10:02;;;;;;;1.50;0.30;;;;;;;14.98;85.65;99860.23;105252;1258;73656;-63
2023/08/04 04:12:29;;;;;;;1.30;0.60;;;;;;;15.05;85.53;99862.95;105164;1261;81702;-63
2023/08/04 04:14:56;;;;;;;1.90;0.50;;;;;;;15.12;85.51;99863.38;105137;1257;72558;-63
2023/08/04 04:17:23;;;;;;;0.70;0.50;;;;;;;15.18;85.62;99859.13;105165;1261;69082;-63
2023/08/04 04:19:50;;;;;;;0.90;0.30;;;;;;;15.24;86.77;99853.12;105199;1256;69192;-63
2023/08/04 04:22:17;;;;;;;2.60;0.40;;;;;;;15.31;86.62;99854.80;105300;1259;75102;-63
2023/08/04 04:24:44;;;;;;;1.20;0.40;;;;;;;15.37;86.18;99862.83;105230;1262;82551;-63
2023/08/04 04:27:11;;;;;;;2.30;0.40;;;;;;;15.44;86.00;99861.17;105311;1256;72667;-65
2023/08/04 04:29:39;;;;;;;0.40;0.40;;;;;;;15.49;85.81;99859.42;105286;1256;69182;-64
2023/08/04 04:32:07;;;;;;;1.20;0.60;;;;;;;15.55;85.64;99861.81;105318;1260;69203;-63
2023/08/04 04:34:34;;;;;;;1.00;0.40;;;;;;;15.61;85.54;99861.25;105301;1258;73700;-63
2023/08/04 04:37:00;;;;;;;1.30;0.50;;;;;;;15.67;85.44;99864.77;105196;1259;83484;-63
2023/08/04 04:39:28;;;;;;;0.50;0.30;;;;;;;15.73;85.31;99859.81;105133;1259;72626;-65
2023/08/04 04:41:55;;;;;;;3.10;0.50;;;;;;;15.78;85.23;99851.71;105230;1260;69197;-64
2023/08/04 04:44:22;;;;;;;0.90;0.50;;;;;;;15.84;85.16;99861.19;105174;1261;69128;-64
2023/08/04 04:46:49;;;;;;;0.90;0.40;;;;;;;15.91;85.13;99867.56;105228;1259;73697;-64
2023/08/04 04:49:16;;;;;;;1.30;0.40;;;;;;;15.96;85.09;99874.80;105240;1259;83344;-64
2023/08/04 04:51:43;;;;;;;2.20;0.40;;;;;;;16.01;85.14;99877.08;105250;1256;72747;-64
2023/08/04 04:54:11;;;;;;;2.60;0.40;;;;;;;16.07;85.04;99876.20;105200;1257;69282;-64
2023/08/04 04:56:38;;;;;;;0.90;0.30;;;;;;;16.12;84.91;99875.30;105186;1267;69263;-64
2023/08/04 04:59:05;;;;;;;4.20;0.50;;;;;;;16.16;84.75;99874.83;105222;1258;74591;-64
2023/08/04 05:01:32;;;;;;;0.50;0.20;;;;;;;16.21;84.56;99873.09;105281;1259;83947;-64
2023/08/04 05:03:59;;;;;;;2.60;0.40;;;;;;;16.26;84.47;99881.73;105143;1260;73673;-64
2023/08/04 05:06:26;;;;;;;1.70;0.80;;;;;;;16.32;84.49;99879.40;105175;1269;69101;-64
2023/08/04 05:08:57;;;;;;;1.00;0.40;;;;;;;16.38;84.50;99880.17;105294;1259;69161;-64
2023/08/04 05:11:24;;;;;;;2.50;0.50;;;;;;;16.44;84.33;99876.41;105355;1259;73550;-64
2023/08/04 05:13:51;;;;;;;1.40;0.40;;;;;;;16.52;84.28;99877.83;105289;1260;82280;-64
2023/08/04 05:16:17;;;;;;;1.40;0.60;;;;;;;16.58;84.08;99880.58;105273;1259;73898;-63
2023/08/04 05:18:44;;;;;;;1.20;0.50;;;;;;;16.65;83.97;99885.36;105450;1261;69186;-64
2023/08/04 05:21:11;;;;;;;0.70;0.40;;;;;;;16.73;83.78;99883.95;105357;1260;69206;-64
2023/08/04 05:23:38;;;;;;;0.80;0.40;;;;;;;16.81;83.70;99885.35;105206;1263;74983;-64
2023/08/04 05:26:05;;;;;;;1.50;0.40;;;;;;;16.89;83.53;99882.45;105297;1259;82257;-64
2023/08/04 05:28:32;;;;;;;2.60;0.30;;;;;;;16.99;83.52;99883.52;105431;1257;73525;-68
2023/08/04 05:31:02;;;;;;;4.00;0.40;;;;;;;17.10;83.47;99884.84;107039;1258;69523;-70
2023/08/04 05:33:30;;;;;;;0.80;0.30;;;;;;;17.20;84.19;99893.69;105484;1259;69185;-66
2023/08/04 05:35:58;;;;;;;2.10;0.60;;;;;;;17.29;84.51;99892.11;105547;1259;73874;-66
2023/08/04 05:38:25;;;;;;;3.40;0.70;;;;;;;17.38;84.13;99895.69;105306;1259;83170;-65
2023/08/04 05:40:52;;;;;;;1.40;0.50;;;;;;;17.47;83.74;99900.48;105396;1260;73518;-67
2023/08/04 05:43:20;;;;;;;2.70;0.50;;;;;;;17.57;83.45;99905.79;105341;1259;70533;-64
2023/08/04 05:45:47;;;;;;;0.90;0.40;;;;;;;17.66;83.23;99909.41;105322;1260;69124;-66
2023/08/04 05:48:14;;;;;;;1.20;0.40;;;;;;;17.76;83.00;99908.11;105407;1258;73473;-65
2023/08/04 05:50:41;;;;;;;2.80;0.40;;;;;;;17.87;82.76;99913.83;105368;1259;83668;-64
2023/08/04 05:53:09;;;;;;;6.60;0.60;;;;;;;17.99;82.60;99920.83;105305;1260;72675;-67
2023/08/04 05:55:36;;;;;;;0.80;0.50;;;;;;;18.10;82.13;99922.90;105298;1261;69647;-64
2023/08/04 05:58:03;;;;;;;1.30;0.50;;;;;;;18.19;81.83;99929.79;105472;1259;69103;-64
2023/08/04 06:00:31;;;;;;;1.70;0.80;;;;;;;18.29;81.70;99929.23;105370;1259;74664;-64
2023/08/04 06:02:58;;;;;;;0.90;0.40;;;;;;;18.39;81.60;99925.83;105396;1259;83210;-64
2023/08/04 06:05:26;;;;;;;1.90;0.50;;;;;;;18.49;81.46;99932.26;105205;1258;72586;-64
2023/08/04 06:07:53;;;;;;;1.20;0.40;;;;;;;18.60;81.14;99933.36;105258;1260;69196;-64
2023/08/04 06:10:20;;;;;;;2.20;0.60;;;;;;;18.69;80.92;99933.86;105417;1259;69226;-64
2023/08/04 06:12:47;;;;;;;3.00;0.60;;;;;;;18.77;80.60;99930.87;105499;1257;74848;-64
2023/08/04 06:15:15;;;;;;;1.20;0.60;;;;;;;18.84;80.47;99938.75;105394;1259;83544;-64
2023/08/04 06:17:43;;;;;;;5.80;0.70;;;;;;;18.92;80.49;99943.23;105313;1262;72678;-64
2023/08/04 06:20:10;;;;;;;1.90;0.80;;;;;;;19.00;80.21;99943.89;105349;1257;69010;-65
2023/08/04 06:22:37;;;;;;;2.60;0.60;;;;;;;19.04;79.66;99944.27;105468;1257;69065;-64
2023/08/04 06:25:05;;;;;;;1.30;0.50;;;;;;;19.06;79.38;99939.13;105278;1259;73924;-64
2023/08/04 06:27:33;;;;;;;2.50;0.70;;;;;;;19.10;79.24;99940.38;105357;1260;82337;-64
2023/08/04 06:30:00;;;;;;;2.30;0.50;;;;;;;19.14;79.01;99945.23;105483;1258;73844;-64
2023/08/04 06:32:28;;;;;;;1.50;0.90;;;;;;;19.19;79.01;99942.56;105349;1261;69059;-64
2023/08/04 06:34:55;;;;;;;2.00;0.60;;;;;;;19.23;78.89;99942.20;105422;1256;69180;-64
2023/08/04 06:37:22;;;;;;;2.20;0.70;;;;;;;19.30;78.90;99951.02;105369;1260;73801;-64
2023/08/04 06:39:49;;;;;;;1.50;0.60;;;;;;;19.38;78.88;99954.48;105162;1260;82424;-64
2023/08/04 06:42:19;;;;;;;1.60;0.60;;;;;;;19.47;78.82;99956.06;105230;1260;73843;-64
2023/08/04 06:44:46;;;;;;;2.50;0.90;;;;;;;19.55;78.65;99950.30;105223;1260;69196;-64
2023/08/04 06:47:13;;;;;;;3.00;0.80;;;;;;;19.62;78.50;99948.63;105410;1258;69698;-64
2023/08/04 06:49:41;;;;;;;1.80;1.00;;;;;;;19.67;78.03;99948.65;105399;1258;74741;-64
2023/08/04 06:52:08;;;;;;;4.80;1.10;;;;;;;19.70;77.81;99950.45;105475;1261;82443;-64
2023/08/04 06:54:36;;;;;;;5.70;0.80;;;;;;;19.75;77.68;99947.27;106099;1258;72486;-64
2023/08/04 06:57:04;;;;;;;5.50;0.80;;;;;;;19.79;77.55;99946.55;105355;1258;69055;-64
2023/08/04 06:59:31;;;;;;;1.90;0.60;;;;;;;19.85;77.53;99955.95;105476;1260;69125;-64
2023/08/04 07:01:58;;;;;;;1.20;0.50;;;;;;;19.90;77.31;99964.11;105278;1259;73850;-61
2023/08/04 07:04:25;;;;;;;1.60;0.70;;;;;;;19.91;76.84;99961.14;105535;1261;83526;-61
2023/08/04 07:06:54;;;;;;;1.80;0.60;;;;;;;19.92;76.66;99960.39;105294;1260;73730;-61
2023/08/04 07:09:21;;;;;;;1.00;0.50;;;;;;;19.93;76.44;99965.77;105386;1258;69106;-64
2023/08/04 07:11:48;;;;;;;1.50;0.60;;;;;;;19.97;76.50;99966.88;105312;1259;69127;-64
2023/08/04 07:14:16;;;;;;;2.00;0.60;;;;;;;20.01;76.37;99969.01;105431;1257;74789;-64
2023/08/04 07:16:46;;;;;;;2.80;0.60;;;;;;;20.06;76.45;99971.27;105380;1260;83339;-64
2023/08/04 07:19:13;;;;;;;;;;;;;;;20.12;76.40;99969.73;105242;1257;73918;-64
2023/08/04 07:21:41;;;;;;;3.90;0.80;;;;;;;20.16;76.12;99969.69;105270;1258;69069;-64
2023/08/04 07:24:09;;;;;;;5.40;1.50;;;;;;;20.22;76.36;99978.55;105419;1261;69137;-65
2023/08/04 07:26:36;;;;;;;1.40;0.90;;;;;;;20.26;75.90;99973.61;105491;1257;74725;-64
2023/08/04 07:29:03;;;;;;;2.40;1.00;;;;;;;20.29;75.78;99979.95;105204;1258;83424;-63
2023/08/04 07:31:31;;;;;;;5.70;1.10;;;;;;;20.33;75.66;99985.81;105350;1256;72665;-63
2023/08/04 07:34:00;;;;;;;2.30;0.90;;;;;;;20.35;75.20;99991.90;105490;1259;69659;-63
2023/08/04 07:36:27;;;;;;;2.30;1.20;;;;;;;20.33;74.90;99998.98;105440;1260;69298;-63
2023/08/04 07:38:54;;;;;;;4.20;1.10;;;;;;;20.32;74.77;99995.33;105321;1260;73500;-65
2023/08/04 07:41:22;;;;;;;2.30;1.10;;;;;;;20.35;75.08;99999.13;105253;1261;83329;-66
2023/08/04 07:43:49;;;;;;;3.10;1.10;;;;;;;20.43;75.03;100001.98;105541;1257;73442;-66
2023/08/04 07:46:23;;;;;;;3.00;1.00;;;;;;;20.51;75.00;100002.05;105121;1259;193129;-65
2023/08/04 07:48:51;;;;;;;2.50;0.80;;;;;;;20.61;74.79;100007.84;105313;1257;69072;-66
2023/08/04 07:51:19;;;;;;;4.70;1.00;;;;;;;20.68;74.56;100003.29;105333;1261;74748;-65
2023/08/04 07:53:47;;;;;;;1.80;0.60;;;;;;;20.79;74.45;100002.42;105299;1260;83326;-70
2023/08/04 07:56:14;;;;;;;1.70;0.70;;;;;;;20.89;73.72;100001.30;105256;1257;73653;-69
2023/08/04 07:58:41;;;;;;;2.20;0.70;;;;;;;20.93;73.35;100008.11;105301;1258;69240;-71
2023/08/04 08:01:08;;;;;;;0.90;0.80;;;;;;;20.92;73.06;100002.46;105324;1260;69310;-70
2023/08/04 08:03:35;;;;;;;1.80;0.80;;;;;;;20.94;72.62;100000.52;105356;1258;72529;-70
2023/08/04 08:06:02;;;;;;;2.50;0.70;;;;;;;20.96;73.08;100001.27;105333;1258;82400;-71
2023/08/04 08:08:31;;;;;;;4.00;0.70;;;;;;;21.04;74.25;100004.85;105325;1257;73954;-70
2023/08/04 08:10:59;;;;;;;1.90;0.80;;;;;;;21.14;74.07;100013.36;105348;1260;69940;-71
2023/08/04 08:13:26;;;;;;;1.00;0.60;;;;;;;21.27;73.61;100011.14;105336;1260;69223;-71
2023/08/04 08:15:53;;;;;;;1.60;0.80;;;;;;;21.45;73.45;100009.29;105354;1259;74888;-68
2023/08/04 08:18:20;;;;;;;2.10;0.80;;;;;;;21.61;73.16;100009.41;105310;1257;82448;-69
2023/08/04 08:20:47;;;;;;;1.30;0.70;;;;;;;21.75;72.79;100009.41;105369;1259;73823;-68
2023/08/04 08:23:14;;;;;;;2.40;0.80;;;;;;;21.89;72.48;100015.44;105315;1259;69222;-69
2023/08/04 08:25:41;;;;;;;1.10;0.60;;;;;;;21.99;71.93;100015.35;105316;1259;69587;-68
2023/08/04 08:28:08;;;;;;;3.90;0.80;;;;;;;22.09;71.67;100021.83;105281;1257;75026;-68
2023/08/04 08:30:35;;;;;;;1.50;0.80;;;;;;;22.18;71.21;100020.81;105298;1258;82403;-69
2023/08/04 08:33:03;;;;;;;1.10;0.60;;;;;;;22.29;70.84;100017.89;105334;1258;73474;-68
2023/08/04 08:35:30;;;;;;;5.00;0.80;;;;;;;22.38;70.49;100021.46;105316;1257;69181;-68
2023/08/04 08:37:57;;;;;;;1.00;0.60;;;;;;;22.45;70.12;100019.04;105342;1258;69104;-67
2023/08/04 08:40:25;;;;;;;1.50;0.60;;;;;;;22.52;69.90;100019.13;105312;1258;73799;-67
2023/08/04 08:42:54;;;;;;;0.90;0.40;;;;;;;22.62;69.70;100019.77;105299;1258;82403;-67
2023/08/04 08:45:25;;;;;;;2.00;0.70;;;;;;;22.73;69.32;100014.44;105329;1259;72662;-66
2023/08/04 08:47:53;;;;;;;2.20;0.60;;;;;;;22.87;69.17;100014.61;105120;1257;69180;-66
2023/08/04 08:50:23;;;;;;;1.60;0.80;;;;;;;22.99;69.01;100010.92;105336;1258;69119;-66
2023/08/04 08:53:16;;;;;;;2.30;0.70;;;;;;;23.13;68.70;100012.86;105384;1257;74819;-67
2023/08/04 08:55:44;;;;;;;1.60;0.60;;;;;;;23.26;68.09;100013.73;105362;1259;82506;-67
2023/08/04 08:58:11;;;;;;;3.60;0.90;;;;;;;23.41;67.82;100014.95;105323;1257;73675;-65
2023/08/04 09:00:38;;;;;;;3.00;0.70;;;;;;;23.56;67.60;100016.55;105187;1258;69096;-67
2023/08/04 09:03:05;;;;;;;1.40;0.70;;;;;;;23.72;67.11;100021.21;105302;1256;69135;-66
2023/08/04 09:05:33;;;;;;;0.60;0.50;;;;;;;23.84;66.49;100023.28;105242;1256;74920;-66
2023/08/04 09:08:02;;;;;;;2.40;0.70;;;;;;;23.86;65.81;100024.67;105187;1255;83694;-66
2023/08/04 09:10:33;;;;;;;1.90;0.60;;;;;;;23.88;65.60;100020.59;105188;1259;73073;-66
2023/08/04 09:13:00;;;;;;;2.10;0.90;;;;;;;23.91;64.98;100022.98;105296;1258;69196;-66
2023/08/04 09:15:48;;;;;;;1.30;0.70;;;;;;;23.87;64.46;100022.12;105367;1257;69111;-66
2023/08/04 09:18:33;;;;;;;0.90;0.70;;;;;;;23.85;63.92;100023.48;105361;1258;73789;-66
2023/08/04 09:21:11;;;;;;;0.70;0.50;;;;;;;23.73;63.41;100028.84;105383;1255;83529;-66
2023/08/04 09:23:47;;;;;;;2.10;0.50;;;;;;;23.58;63.38;100034.57;105380;1258;72601;-66
2023/08/04 09:26:15;;;;;;;0.80;0.50;;;;;;;23.50;63.23;100043.52;105361;1260;69523;-66
2023/08/04 09:28:42;;;;;;;1.20;0.60;;;;;;;23.45;62.99;100046.16;105319;1258;69100;-66
2023/08/04 09:31:10;;;;;;;0.50;0.50;;;;;;;23.42;62.93;100047.19;105172;1258;72833;-66
2023/08/04 09:33:41;;;;;;;0.60;0.50;;;;;;;23.30;62.48;100043.70;105233;1257;83453;-66
2023/08/04 09:36:12;;;;;;;1.40;0.90;;;;;;;23.13;62.59;100045.17;105321;1259;73527;-66
2023/08/04 09:38:40;;;;;;;0.90;0.50;;;;;;;22.99;63.32;100045.56;105275;1257;69203;-67
2023/08/04 09:41:12;;;;;;;1.20;0.50;;;;;;;22.92;64.53;100047.25;105180;1258;69210;-66
2023/08/04 09:43:48;;;;;;;1.10;0.50;;;;;;;22.94;64.07;100047.04;105342;1258;73802;-67
2023/08/04 09:46:18;;;;;;;1.20;0.60;;;;;;;23.09;64.19;100043.74;105346;1255;83515;-68
2023/08/04 09:48:47;;;;;;;1.20;0.50;;;;;;;23.28;63.84;100050.11;105108;1256;73978;-68
2023/08/04 09:51:18;;;;;;;1.40;0.40;;;;;;;23.51;63.54;100046.44;105266;1256;69074;-68
2023/08/04 09:53:47;;;;;;;1.30;0.60;;;;;;;23.66;62.40;100045.77;105309;1258;69166;-68
2023/08/04 09:56:17;;;;;;;1.90;0.60;;;;;;;23.66;61.34;100063.17;105283;1257;73964;-68
2023/08/04 09:58:45;;;;;;;0.60;0.30;;;;;;;23.54;59.80;100064.89;105387;1260;83336;-68
2023/08/04 10:01:13;;;;;;;0.80;0.50;;;;;;;23.47;59.70;100062.21;105358;1259;72602;-68
2023/08/04 10:03:42;;;;;;;0.60;0.50;;;;;;;23.47;59.77;100064.48;105320;1258;69218;-70
2023/08/04 10:06:09;;;;;;;1.80;0.60;;;;;;;23.50;59.86;100068.46;105377;1258;69725;-67
2023/08/04 10:08:40;;;;;;;0.60;0.30;;;;;;;23.60;60.08;100075.34;105309;1259;73689;-69
2023/08/04 10:11:08;;;;;;;1.00;0.50;;;;;;;23.75;60.16;100074.13;105332;1257;82653;-68
2023/08/04 10:13:38;;;;;;;0.50;0.40;;;;;;;23.96;60.31;100069.88;105302;1258;72663;-68
2023/08/04 10:16:07;;;;;;;1.30;0.40;;;;;;;24.04;59.98;100072.32;105265;1257;69128;-68
2023/08/04 10:18:46;;;;;;;1.50;0.40;;;;;;;24.02;59.39;100076.05;105341;1258;69195;-69
2023/08/04 10:21:13;;;;;;;0.70;0.50;;;;;;;23.92;59.01;100084.92;105357;1257;74867;-69
2023/08/04 10:23:40;;;;;;;0.90;0.50;;;;;;;23.84;59.30;100088.19;105338;1259;83450;-69
2023/08/04 10:26:10;;;;;;;2.00;0.70;;;;;;;23.79;59.02;100089.00;105382;1256;72670;-70
2023/08/04 10:29:07;;;;;;;1.00;0.50;;;;;;;23.77;58.82;100087.84;105366;1257;69151;-70
2023/08/04 10:31:41;;;;;;;3.90;0.60;;;;;;;23.75;58.98;100090.71;105295;1259;69176;-70
2023/08/04 10:34:24;;;;;;;0.70;0.50;;;;;;;23.81;58.84;100091.92;105376;1256;73777;-69
2023/08/04 10:37:04;;;;;;;1.10;0.40;;;;;;;23.95;58.83;100095.54;105300;1256;83338;-69
2023/08/04 10:39:44;;;;;;;1.30;0.60;;;;;;;24.12;58.75;100089.76;105333;1260;73827;-69
2023/08/04 10:42:22;;;;;;;0.50;0.40;;;;;;;24.31;58.35;100085.92;105331;1256;69194;-70
2023/08/04 10:44:56;;;;;;;0.70;0.40;;;;;;;24.51;58.42;100071.02;105352;1257;69077;-68
2023/08/04 10:47:43;;;;;;;0.90;0.60;;;;;;;25.04;58.70;100065.18;105360;1257;74998;-69
2023/08/04 10:50:30;;;;;;;1.00;0.60;;;;;;;25.62;58.38;100067.20;105295;1258;83460;-69
2023/08/04 10:52:57;;;;;;;1.20;0.80;;;;;;;26.10;58.34;100067.97;105287;1257;72533;-69
2023/08/04 10:55:26;;;;;;;0.90;0.60;;;;;;;26.64;58.01;100068.39;105122;1261;69797;-69
2023/08/04 10:57:53;;;;;;;0.70;0.60;;;;;;;27.16;57.41;100075.52;105297;1259;69184;-70
2023/08/04 11:00:20;;;;;;;1.60;0.70;;;;;;;27.52;56.48;100077.36;105324;1256;74730;-70
2023/08/04 11:02:46;;;;;;;0.90;0.50;;;;;;;27.39;54.24;100077.95;105315;1256;82251;-70
2023/08/04 11:05:14;;;;;;;0.70;0.60;;;;;;;27.21;54.42;100076.73;105305;1257;73630;-70
2023/08/04 11:07:47;;;;;;;1.30;0.60;;;;;;;27.11;54.18;100074.11;105424;1257;69119;-69
2023/08/04 11:10:15;;;;;;;1.60;0.60;;;;;;;27.07;54.13;100067.56;105374;1255;69123;-69
2023/08/04 11:12:42;;;;;;;0.80;0.70;;;;;;;26.93;53.54;100069.77;105348;1256;74891;-68
2023/08/04 11:15:10;;;;;;;0.80;0.70;;;;;;;26.82;53.44;100077.29;105327;1257;83120;-69
2023/08/04 11:17:39;;;;;;;0.70;0.70;;;;;;;26.66;53.17;100089.30;105274;1256;72700;-69
2023/08/04 11:20:11;;;;;;;1.50;0.80;;;;;;;26.58;53.24;100093.09;105364;1256;69196;-69
2023/08/04 11:22:53;;;;;;;1.20;0.90;;;;;;;26.54;54.16;100101.05;105305;1255;69128;-69
2023/08/04 11:25:20;;;;;;;3.10;0.80;;;;;;;26.49;53.66;100103.52;105362;1259;74827;-69
2023/08/04 11:27:47;;;;;;;1.30;0.80;;;;;;;26.19;52.75;100105.83;105202;1258;82515;-68